createdAt,value
2022-10-01T00:01:21.413Z,7.10
2022-10-01T00:03:49.766Z,6.97
2022-10-01T00:06:20.452Z,6.82
2022-10-01T00:08:51.813Z,7.85
2022-10-01T00:11:23.405Z,5.65
2022-10-01T00:13:52.745Z,5.18
2022-10-01T00:16:22.813Z,6.38
2022-10-01T00:18:54.876Z,6.65
2022-10-01T00:21:25.507Z,6.45
2022-10-01T00:23:57.142Z,6.68
2022-10-01T00:26:28.132Z,7.30
2022-10-01T00:28:59.618Z,7.88
2022-10-01T00:31:28.753Z,6.05
2022-10-01T00:33:59.593Z,7.93
2022-10-01T00:36:28.616Z,7.38
2022-10-01T00:39:00.325Z,12.82
2022-10-01T00:41:30.681Z,7.65
2022-10-01T00:44:01.657Z,8.20
2022-10-01T00:46:38.256Z,6.28
2022-10-01T00:49:11.585Z,8.23
2022-10-01T00:51:45.928Z,8.45
2022-10-01T00:54:22.310Z,8.85
2022-10-01T00:56:54.567Z,5.78
2022-10-01T00:59:23.619Z,7.75
2022-10-01T01:01:52.100Z,7.80
2022-10-01T01:04:20.785Z,8.30
2022-10-01T01:06:57.630Z,8.88
2022-10-01T01:09:31.202Z,7.53
2022-10-01T01:12:07.278Z,6.28
2022-10-01T01:14:42.836Z,5.47
2022-10-01T01:17:19.782Z,5.55
2022-10-01T01:20:07.696Z,5.95
2022-10-01T01:22:41.941Z,5.53
2022-10-01T01:25:17.506Z,5.95
2022-10-01T01:27:49.665Z,5.15
2022-10-01T01:30:20.591Z,5.07
2022-10-01T01:32:54.419Z,6.60
2022-10-01T01:35:31.550Z,6.82
2022-10-01T01:38:03.488Z,5.55
2022-10-01T01:40:34.428Z,6.88
2022-10-01T01:43:06.786Z,6.38
2022-10-01T01:45:40.252Z,4.72
2022-10-01T01:48:09.898Z,4.90
2022-10-01T01:50:44.447Z,4.70
2022-10-01T01:53:12.817Z,6.57
2022-10-01T01:55:41.529Z,5.63
2022-10-01T01:58:10.198Z,5.43
2022-10-01T02:00:40.831Z,5.22
2022-10-01T02:03:10.913Z,4.80
2022-10-01T02:05:47.792Z,4.25
2022-10-01T02:08:26.402Z,4.95
2022-10-01T02:11:17.609Z,5.95
2022-10-01T02:13:56.488Z,6.60
2022-10-01T02:16:35.789Z,6.97
2022-10-01T02:19:09.895Z,4.38
2022-10-01T02:21:41.962Z,4.82
2022-10-01T02:24:19.650Z,4.50
2022-10-01T02:26:51.616Z,4.72
2022-10-01T02:29:23.037Z,6.80
2022-10-01T02:31:55.665Z,5.40
2022-10-01T02:34:29.395Z,5.35
2022-10-01T02:36:59.922Z,4.93
2022-10-01T02:39:30.539Z,4.70
2022-10-01T02:42:01.618Z,8.27
2022-10-01T02:44:37.959Z,5.22
2022-10-01T02:47:10.866Z,5.03
2022-10-01T02:49:41.553Z,5.00
2022-10-01T02:52:15.549Z,5.07
2022-10-01T02:54:51.155Z,4.30
2022-10-01T02:57:27.695Z,4.80
2022-10-01T02:59:59.097Z,5.05
2022-10-01T03:02:31.670Z,5.60
2022-10-01T03:05:01.019Z,6.63
2022-10-01T03:07:31.445Z,4.80
2022-10-01T03:09:59.709Z,4.22
2022-10-01T03:12:28.357Z,4.20
2022-10-01T03:14:56.842Z,3.70
2022-10-01T03:17:25.222Z,5.28
2022-10-01T03:19:54.969Z,3.30
2022-10-01T03:22:23.864Z,3.80
2022-10-01T03:24:52.299Z,6.90
2022-10-01T03:27:20.714Z,3.83
2022-10-01T03:29:49.821Z,4.03
2022-10-01T03:32:18.110Z,4.47
2022-10-01T03:34:46.407Z,3.05
2022-10-01T03:37:16.011Z,4.03
2022-10-01T03:39:44.099Z,4.15
2022-10-01T03:42:12.279Z,5.32
2022-10-01T03:44:40.444Z,4.03
2022-10-01T03:47:09.795Z,4.80
2022-10-01T03:49:38.136Z,3.47
2022-10-01T03:52:06.675Z,3.17
2022-10-01T03:54:36.144Z,3.97
2022-10-01T03:57:04.731Z,3.97
2022-10-01T03:59:33.211Z,4.28
2022-10-01T04:02:01.481Z,4.03
2022-10-01T04:04:29.806Z,4.93
2022-10-01T04:06:58.026Z,3.83
2022-10-01T04:09:26.307Z,7.68
2022-10-01T04:11:55.781Z,3.63
2022-10-01T04:14:24.253Z,5.07
2022-10-01T04:16:52.644Z,4.00
2022-10-01T04:19:21.130Z,4.88
2022-10-01T04:21:49.593Z,4.90
2022-10-01T04:24:17.827Z,5.75
2022-10-01T04:26:46.573Z,6.18
2022-10-01T04:29:16.073Z,5.50
2022-10-01T04:31:44.246Z,7.00
2022-10-01T04:34:12.540Z,9.60
2022-10-01T04:36:40.927Z,4.55
2022-10-01T04:39:09.019Z,5.50
2022-10-01T04:41:37.490Z,5.13
2022-10-01T04:44:06.480Z,6.10
2022-10-01T04:46:36.588Z,6.35
2022-10-01T04:49:04.837Z,6.05
2022-10-01T04:51:33.218Z,5.13
2022-10-01T04:54:01.561Z,6.40
2022-10-01T04:56:30.355Z,5.43
2022-10-01T04:58:58.733Z,6.90
2022-10-01T05:01:26.948Z,5.10
2022-10-01T05:03:56.783Z,5.97
2022-10-01T05:06:25.493Z,7.35
2022-10-01T05:08:53.925Z,6.45
2022-10-01T05:11:22.322Z,5.43
2022-10-01T05:13:50.858Z,6.68
2022-10-01T05:16:19.355Z,9.35
2022-10-01T05:18:47.545Z,5.38
2022-10-01T05:21:17.149Z,6.40
2022-10-01T05:23:47.051Z,5.68
2022-10-01T05:26:15.702Z,6.10
2022-10-01T05:28:44.709Z,6.63
2022-10-01T05:31:14.045Z,5.80
2022-10-01T05:33:42.859Z,4.85
2022-10-01T05:36:11.786Z,6.90
2022-10-01T05:38:42.319Z,4.53
2022-10-01T05:41:10.663Z,5.20
2022-10-01T05:43:39.342Z,4.93
2022-10-01T05:46:07.728Z,5.47
2022-10-01T05:48:37.278Z,5.72
2022-10-01T05:51:06.689Z,3.97
2022-10-01T05:53:36.825Z,3.72
2022-10-01T05:56:06.812Z,4.40
2022-10-01T05:58:35.405Z,5.65
2022-10-01T06:01:04.074Z,5.20
2022-10-01T06:03:32.393Z,6.63
2022-10-01T06:06:00.810Z,5.68
2022-10-01T06:08:29.311Z,5.20
2022-10-01T06:11:01.733Z,3.90
2022-10-01T06:13:31.974Z,6.55
2022-10-01T06:16:00.470Z,8.00
2022-10-01T06:18:28.829Z,6.10
2022-10-01T06:20:59.600Z,4.25
2022-10-01T06:23:27.904Z,5.63
2022-10-01T06:25:56.125Z,6.13
2022-10-01T06:28:24.397Z,4.57
2022-10-01T06:30:54.690Z,5.38
2022-10-01T06:33:23.024Z,5.82
2022-10-01T06:35:52.535Z,5.88
2022-10-01T06:38:22.666Z,5.97
2022-10-01T06:40:54.922Z,7.35
2022-10-01T06:43:23.179Z,4.88
2022-10-01T06:45:53.543Z,5.07
2022-10-01T06:48:22.497Z,5.03
2022-10-01T06:50:52.148Z,4.78
2022-10-01T06:53:21.371Z,6.60
2022-10-01T06:55:50.415Z,5.72
2022-10-01T06:58:21.011Z,5.57
2022-10-01T07:00:50.534Z,5.40
2022-10-01T07:03:23.098Z,6.60
2022-10-01T07:05:51.454Z,6.93
2022-10-01T07:08:21.535Z,5.30
2022-10-01T07:10:50.021Z,7.63
2022-10-01T07:13:22.257Z,5.80
2022-10-01T07:15:50.478Z,9.20
2022-10-01T07:18:21.481Z,5.28
2022-10-01T07:20:50.232Z,5.30
2022-10-01T07:23:18.904Z,5.35
2022-10-01T07:25:47.464Z,7.05
2022-10-01T07:28:18.284Z,7.53
2022-10-01T07:30:49.268Z,5.75
2022-10-01T07:33:20.871Z,6.28
2022-10-01T07:35:49.504Z,5.85
2022-10-01T07:38:17.807Z,6.93
2022-10-01T07:40:54.622Z,7.13
2022-10-01T07:43:24.388Z,6.43
2022-10-01T07:45:58.514Z,5.90
2022-10-01T07:48:31.892Z,5.18
2022-10-01T07:51:00.514Z,5.47
2022-10-01T07:53:32.021Z,5.60
2022-10-01T07:56:02.452Z,6.53
2022-10-01T07:58:31.170Z,5.70
2022-10-01T08:01:07.217Z,5.22
2022-10-01T08:03:37.811Z,7.53
2022-10-01T08:06:06.911Z,8.20
2022-10-01T08:08:35.722Z,6.20
2022-10-01T08:11:04.298Z,6.75
2022-10-01T08:13:34.102Z,5.45
2022-10-01T08:16:06.348Z,5.43
2022-10-01T08:18:35.564Z,8.80
2022-10-01T08:21:06.183Z,6.15
2022-10-01T08:23:35.015Z,5.22
2022-10-01T08:26:05.778Z,5.57
2022-10-01T08:28:37.360Z,6.13
2022-10-01T08:31:10.126Z,6.30
2022-10-01T08:33:40.166Z,6.82
2022-10-01T08:36:10.751Z,6.47
2022-10-01T08:38:46.908Z,5.38
2022-10-01T08:41:55.717Z,4.88
2022-10-01T08:44:34.258Z,4.43
2022-10-01T08:47:08.564Z,4.70
2022-10-01T08:49:43.015Z,4.25
2022-10-01T08:52:22.649Z,5.25
2022-10-01T08:54:59.082Z,4.47
2022-10-01T08:57:31.762Z,5.88
2022-10-01T09:00:01.861Z,3.92
2022-10-01T09:02:39.786Z,4.53
2022-10-01T09:05:32.989Z,3.90
2022-10-01T09:08:17.212Z,5.47
2022-10-01T09:10:48.747Z,5.00
2022-10-01T09:13:32.292Z,3.80
2022-10-01T09:16:11.924Z,5.80
2022-10-01T09:18:51.671Z,4.75
2022-10-01T09:21:24.164Z,5.15
2022-10-01T09:24:04.313Z,3.60
2022-10-01T09:26:46.411Z,2.60
2022-10-01T09:29:20.925Z,3.05
2022-10-01T09:31:53.348Z,3.30
2022-10-01T09:34:32.235Z,3.05
2022-10-01T09:37:23.597Z,3.05
2022-10-01T09:40:04.477Z,4.90
2022-10-01T09:42:34.142Z,3.17
2022-10-01T09:45:02.886Z,4.90
2022-10-01T09:47:37.179Z,6.20
2022-10-01T09:50:08.726Z,3.75
2022-10-01T09:52:39.869Z,5.45
2022-10-01T09:55:23.559Z,4.47
2022-10-01T09:57:57.943Z,4.00
2022-10-01T10:00:27.921Z,3.80
2022-10-01T10:02:57.617Z,3.15
2022-10-01T10:05:28.532Z,3.40
2022-10-01T10:08:00.279Z,3.10
2022-10-01T10:10:35.502Z,3.67
2022-10-01T10:13:26.443Z,3.35
2022-10-01T10:15:57.732Z,3.47
2022-10-01T10:18:30.597Z,4.22
2022-10-01T10:21:06.462Z,4.47
2022-10-01T10:23:35.933Z,3.38
2022-10-01T10:26:08.050Z,3.50
2022-10-01T10:28:44.064Z,3.05
2022-10-01T10:31:16.618Z,4.43
2022-10-01T10:33:54.639Z,4.10
2022-10-01T10:36:28.980Z,3.42
2022-10-01T10:38:59.817Z,4.85
2022-10-01T10:41:31.443Z,3.70
2022-10-01T10:44:05.185Z,4.45
2022-10-01T10:46:36.160Z,3.55
2022-10-01T10:49:09.246Z,2.90
2022-10-01T10:51:53.951Z,5.28
2022-10-01T10:54:26.924Z,3.55
2022-10-01T10:57:02.327Z,4.13
2022-10-01T10:59:33.309Z,3.83
2022-10-01T11:02:04.506Z,4.63
2022-10-01T11:04:44.780Z,3.20
2022-10-01T11:07:20.612Z,3.88
2022-10-01T11:10:07.131Z,3.42
2022-10-01T11:12:49.365Z,4.30
2022-10-01T11:15:35.960Z,3.80
2022-10-01T11:18:31.445Z,4.47
2022-10-01T11:21:17.063Z,6.80
2022-10-01T11:24:10.516Z,3.88
2022-10-01T11:26:50.554Z,4.30
2022-10-01T11:29:35.580Z,4.43
2022-10-01T11:32:12.047Z,2.83
2022-10-01T11:35:05.059Z,3.45
2022-10-01T11:37:48.585Z,3.47
2022-10-01T11:40:25.024Z,3.70
2022-10-01T11:43:02.906Z,3.70
2022-10-01T11:45:39.317Z,3.03
2022-10-01T11:48:12.695Z,3.22
2022-10-01T11:50:44.741Z,4.97
2022-10-01T11:53:18.064Z,3.72
2022-10-01T11:56:09.937Z,2.97
2022-10-01T11:58:52.911Z,4.18
2022-10-01T12:01:29.985Z,3.58
2022-10-01T12:04:06.165Z,3.40
2022-10-01T12:06:39.029Z,4.93
2022-10-01T12:09:15.374Z,3.85
2022-10-01T12:11:50.780Z,3.08
2022-10-01T12:14:23.900Z,3.80
2022-10-01T12:17:14.371Z,4.07
2022-10-01T12:19:50.494Z,3.92
2022-10-01T12:22:25.922Z,2.50
2022-10-01T12:24:54.843Z,3.78
2022-10-01T12:27:36.667Z,4.45
2022-10-01T12:30:14.214Z,3.55
2022-10-01T12:33:04.781Z,4.32
2022-10-01T12:35:49.853Z,2.72
2022-10-01T12:38:30.320Z,2.78
2022-10-01T12:41:13.684Z,3.60
2022-10-01T12:43:56.830Z,3.33
2022-10-01T12:46:41.607Z,4.03
2022-10-01T12:49:22.602Z,3.50
2022-10-01T12:51:57.683Z,4.22
2022-10-01T12:54:56.360Z,3.03
2022-10-01T12:57:39.401Z,3.40
2022-10-01T13:00:14.696Z,3.25
2022-10-01T13:03:14.615Z,2.08
2022-10-01T13:05:55.538Z,3.30
2022-10-01T13:08:43.955Z,2.05
2022-10-01T13:11:31.423Z,4.03
2022-10-01T13:14:00.921Z,3.83
2022-10-01T13:16:50.076Z,2.35
2022-10-01T13:19:24.486Z,2.38
2022-10-01T13:22:08.633Z,2.85
2022-10-01T13:24:41.442Z,4.57
2022-10-01T13:27:17.780Z,1.98
2022-10-01T13:29:56.645Z,1.35
2022-10-01T13:32:28.791Z,3.08
2022-10-01T13:34:59.054Z,2.38
2022-10-01T13:37:41.358Z,2.97
2022-10-01T13:40:27.981Z,2.28
2022-10-01T13:42:58.920Z,3.72
2022-10-01T13:45:32.239Z,2.05
2022-10-01T13:48:09.999Z,3.47
2022-10-01T13:50:40.959Z,3.15
2022-10-01T13:53:17.915Z,2.22
2022-10-01T13:55:47.869Z,2.10
2022-10-01T13:58:34.503Z,1.85
2022-10-01T14:01:05.852Z,3.08
2022-10-01T14:03:50.185Z,2.42
2022-10-01T14:06:25.420Z,4.88
2022-10-01T14:09:04.744Z,3.63
2022-10-01T14:11:54.808Z,2.67
2022-10-01T14:14:50.660Z,2.78
2022-10-01T14:17:23.094Z,2.03
2022-10-01T14:19:53.666Z,1.92
2022-10-01T14:22:33.730Z,3.22
2022-10-01T14:25:22.487Z,2.55
2022-10-01T14:28:21.493Z,3.17
2022-10-01T14:30:56.147Z,3.38
2022-10-01T14:34:02.318Z,5.75
2022-10-01T14:36:35.278Z,2.67
2022-10-01T14:39:06.829Z,1.63
2022-10-01T14:41:36.997Z,5.47
2022-10-01T14:44:21.822Z,5.40
2022-10-01T14:46:50.112Z,2.33
2022-10-01T14:49:21.604Z,1.73
2022-10-01T14:51:53.704Z,3.55
2022-10-01T14:54:22.880Z,1.73
2022-10-01T14:56:53.554Z,6.07
2022-10-01T14:59:29.111Z,4.93
2022-10-01T15:02:00.518Z,2.70
2022-10-01T15:04:29.333Z,1.85
2022-10-01T15:07:05.185Z,2.92
2022-10-01T15:09:35.525Z,2.30
2022-10-01T15:12:06.885Z,2.65
2022-10-01T15:14:35.394Z,3.25
2022-10-01T15:17:05.247Z,4.05
2022-10-01T15:19:34.159Z,2.50
2022-10-01T15:22:03.977Z,5.30
2022-10-01T15:24:39.525Z,3.83
2022-10-01T15:27:10.034Z,1.52
2022-10-01T15:29:40.382Z,4.60
2022-10-01T15:32:09.903Z,3.22
2022-10-01T15:34:40.228Z,3.08
2022-10-01T15:37:14.014Z,2.08
2022-10-01T15:39:48.534Z,2.28
2022-10-01T15:42:25.919Z,4.30
2022-10-01T15:45:22.474Z,2.00
2022-10-01T15:47:57.049Z,3.03
2022-10-01T15:50:27.290Z,3.20
2022-10-01T15:53:06.509Z,2.60
2022-10-01T15:55:39.118Z,4.18
2022-10-01T15:58:15.805Z,4.55
2022-10-01T16:00:57.789Z,5.65
2022-10-01T16:03:29.433Z,4.75
2022-10-01T16:06:01.735Z,3.70
2022-10-01T16:08:34.548Z,4.60
2022-10-01T16:11:23.531Z,3.42
2022-10-01T16:14:13.650Z,4.32
2022-10-01T16:16:43.407Z,4.35
2022-10-01T16:19:25.409Z,3.72
2022-10-01T16:22:17.173Z,2.95
2022-10-01T16:24:46.949Z,3.30
2022-10-01T16:27:20.188Z,6.13
2022-10-01T16:29:55.711Z,3.58
2022-10-01T16:32:25.396Z,4.10
2022-10-01T16:34:53.869Z,4.15
2022-10-01T16:37:22.186Z,5.05
2022-10-01T16:39:50.475Z,6.57
2022-10-01T16:42:24.554Z,4.97
2022-10-01T16:44:53.301Z,2.72
2022-10-01T16:47:21.841Z,3.38
2022-10-01T16:49:52.905Z,3.92
2022-10-01T16:52:21.429Z,3.10
2022-10-01T16:54:50.700Z,2.72
2022-10-01T16:57:20.354Z,2.85
2022-10-01T16:59:48.749Z,3.08
2022-10-01T17:02:17.816Z,3.90
2022-10-01T17:04:46.082Z,2.50
2022-10-01T17:07:18.561Z,4.45
2022-10-01T17:09:47.252Z,4.45
2022-10-01T17:12:26.897Z,4.28
2022-10-01T17:14:56.729Z,4.18
2022-10-01T17:17:27.557Z,3.03
2022-10-01T17:19:56.124Z,5.07
2022-10-01T17:22:26.263Z,4.03
2022-10-01T17:24:54.504Z,6.10
2022-10-01T17:27:22.797Z,6.80
2022-10-01T17:29:52.151Z,10.10
2022-10-01T17:32:20.706Z,3.90
2022-10-01T17:34:49.689Z,6.05
2022-10-01T17:37:21.849Z,6.43
2022-10-01T17:39:52.911Z,4.57
2022-10-01T17:42:21.000Z,7.43
2022-10-01T17:44:49.743Z,5.40
2022-10-01T17:47:18.040Z,7.82
2022-10-01T17:49:46.140Z,6.70
2022-10-01T17:52:14.622Z,4.47
2022-10-01T17:54:46.020Z,5.40
2022-10-01T17:57:15.579Z,5.47
2022-10-01T17:59:43.772Z,4.72
2022-10-01T18:02:36.764Z,6.47
2022-10-01T18:05:03.886Z,4.53
2022-10-01T18:07:32.138Z,5.78
2022-10-01T18:10:00.574Z,6.07
2022-10-01T18:12:30.157Z,9.40
2022-10-01T18:15:01.474Z,4.18
2022-10-01T18:17:30.144Z,4.28
2022-10-01T18:19:58.471Z,7.88
2022-10-01T18:22:27.335Z,6.68
2022-10-01T18:24:55.909Z,5.22
2022-10-01T18:27:24.676Z,4.97
2022-10-01T18:29:54.444Z,4.93
2022-10-01T18:32:25.811Z,4.75
2022-10-01T18:34:57.809Z,4.80
2022-10-01T18:37:37.645Z,4.40
2022-10-01T18:40:13.100Z,5.57
2022-10-01T18:42:46.903Z,4.72
2022-10-01T18:45:18.736Z,4.88
2022-10-01T18:47:58.737Z,6.57
2022-10-01T18:50:37.493Z,7.35
2022-10-01T18:53:18.730Z,5.07
2022-10-01T18:56:12.611Z,5.30
2022-10-01T18:58:58.283Z,5.00
2022-10-01T19:01:36.655Z,4.95
2022-10-01T19:04:21.871Z,6.68
2022-10-01T19:07:08.610Z,5.88
2022-10-01T19:09:44.809Z,8.32
2022-10-01T19:12:27.654Z,4.18
2022-10-01T19:15:04.077Z,4.93
2022-10-01T19:17:57.805Z,4.43
2022-10-01T19:20:43.758Z,11.02
2022-10-01T19:23:34.269Z,7.00
2022-10-01T19:26:08.606Z,6.13
2022-10-01T19:28:49.766Z,4.65
2022-10-01T19:31:26.685Z,5.20
2022-10-01T19:34:14.632Z,6.28
2022-10-01T19:36:48.183Z,5.95
2022-10-01T19:39:23.307Z,5.28
2022-10-01T19:41:56.790Z,10.13
2022-10-01T19:44:29.222Z,5.90
2022-10-01T19:47:02.649Z,10.13
2022-10-01T19:49:37.326Z,9.77
2022-10-01T19:52:12.913Z,6.57
2022-10-01T19:54:46.050Z,8.18
2022-10-01T19:57:24.635Z,9.93
2022-10-01T19:59:54.553Z,5.53
2022-10-01T20:02:33.564Z,7.32
2022-10-01T20:05:05.905Z,4.90
2022-10-01T20:07:46.414Z,5.05
2022-10-01T20:10:21.552Z,6.40
2022-10-01T20:13:01.682Z,6.72
2022-10-01T20:15:41.530Z,7.18
2022-10-01T20:18:19.236Z,6.47
2022-10-01T20:21:01.465Z,6.90
2022-10-01T20:23:40.944Z,7.72
2022-10-01T20:26:18.095Z,6.03
2022-10-01T20:28:57.385Z,5.25
2022-10-01T20:31:31.021Z,4.75
2022-10-01T20:34:06.988Z,5.22
2022-10-01T20:36:41.956Z,5.30
2022-10-01T20:39:18.253Z,5.78
2022-10-01T20:41:49.423Z,7.38
2022-10-01T20:44:23.269Z,6.20
2022-10-01T20:46:54.631Z,5.97
2022-10-01T20:49:27.927Z,8.23
2022-10-01T20:52:03.226Z,6.03
2022-10-01T20:54:36.665Z,7.80
2022-10-01T20:57:10.926Z,6.07
2022-10-01T20:59:43.235Z,5.60
2022-10-01T21:02:25.522Z,4.88
2022-10-01T21:04:57.572Z,6.30
2022-10-01T21:07:36.402Z,5.65
2022-10-01T21:10:15.635Z,8.55
2022-10-01T21:12:52.412Z,8.55
2022-10-01T21:15:24.725Z,6.45
2022-10-01T21:18:01.868Z,9.27
2022-10-01T21:20:46.011Z,9.82
2022-10-01T21:23:27.242Z,8.68
2022-10-01T21:26:08.995Z,6.72
2022-10-01T21:29:05.543Z,7.57
2022-10-01T21:31:45.697Z,6.13
2022-10-01T21:34:20.470Z,10.93
2022-10-01T21:36:59.699Z,5.97
2022-10-01T21:39:34.058Z,9.60
2022-10-01T21:42:15.125Z,8.75
2022-10-01T21:45:06.634Z,8.95
2022-10-01T21:47:48.622Z,9.77
2022-10-01T21:50:26.148Z,10.88
2022-10-01T21:53:24.299Z,10.55
2022-10-01T21:56:19.108Z,7.28
2022-10-01T21:59:01.297Z,12.75
2022-10-01T22:01:43.297Z,12.85
2022-10-01T22:04:19.410Z,8.82
2022-10-01T22:06:53.256Z,7.95
2022-10-01T22:09:31.639Z,8.48
2022-10-01T22:12:02.958Z,10.80
2022-10-01T22:14:31.406Z,14.35
2022-10-01T22:17:04.333Z,9.02
2022-10-01T22:19:35.633Z,11.30
2022-10-01T22:22:10.075Z,10.00
2022-10-01T22:24:43.565Z,15.45
2022-10-01T22:27:20.070Z,9.73
2022-10-01T22:29:54.325Z,11.25
2022-10-01T22:32:28.663Z,12.27
2022-10-01T22:35:01.261Z,9.52
2022-10-01T22:37:34.628Z,10.25
2022-10-01T22:40:14.592Z,9.88
2022-10-01T22:42:48.997Z,13.95
2022-10-01T22:45:18.673Z,12.75
2022-10-01T22:47:59.988Z,16.98
2022-10-01T22:50:39.927Z,12.57
2022-10-01T22:53:21.288Z,11.60
2022-10-01T22:55:54.946Z,9.38
2022-10-01T22:58:50.193Z,14.90
2022-10-01T23:01:30.076Z,15.55
2022-10-01T23:04:32.659Z,12.05
2022-10-01T23:07:12.540Z,11.48
2022-10-01T23:09:49.903Z,10.88
2022-10-01T23:12:28.852Z,13.60
2022-10-01T23:15:08.562Z,10.27
2022-10-01T23:17:45.112Z,11.55
2022-10-01T23:20:28.660Z,13.05
2022-10-01T23:23:10.950Z,11.98
2022-10-01T23:25:51.694Z,10.93
2022-10-01T23:28:29.397Z,9.75
2022-10-01T23:31:07.159Z,10.75
2022-10-01T23:33:58.903Z,10.52
2022-10-01T23:36:37.650Z,10.30
2022-10-01T23:39:44.926Z,9.73
2022-10-01T23:42:23.611Z,15.43
2022-10-01T23:45:01.465Z,10.13
2022-10-01T23:47:39.219Z,13.88
2022-10-01T23:50:18.540Z,10.55
2022-10-01T23:52:53.086Z,14.23
2022-10-01T23:55:44.811Z,10.60
2022-10-01T23:58:15.560Z,11.00
